createdAt,value
2022-08-12T00:00:00.292Z,961
2022-08-12T00:05:00.250Z,961.4
2022-08-12T00:10:00.235Z,961.9
2022-08-12T00:15:00.218Z,961.9
2022-08-12T00:20:00.242Z,962.5
2022-08-12T00:25:00.164Z,962.7
2022-08-12T00:30:00.173Z,963.2
2022-08-12T00:35:00.173Z,963.6
2022-08-12T00:40:00.212Z,963.8
2022-08-12T00:45:00.156Z,964.3
2022-08-12T00:50:00.204Z,964.5
2022-08-12T00:55:00.182Z,964.9
2022-08-12T01:00:00.244Z,964.7
2022-08-12T01:05:00.155Z,964.5
2022-08-12T01:10:00.166Z,964.9
2022-08-12T01:15:00.173Z,964.9
2022-08-12T01:20:00.182Z,964.9
2022-08-12T01:25:00.160Z,964.5
2022-08-12T01:30:00.177Z,964.5
2022-08-12T01:35:00.165Z,964.3
2022-08-12T01:40:33.742Z,963.8
2022-08-12T01:45:00.162Z,963.6
2022-08-12T01:50:00.169Z,963.2
2022-08-12T01:55:00.177Z,963.2
2022-08-12T02:00:00.206Z,963.4
2022-08-12T02:05:00.215Z,963.4
2022-08-12T02:10:00.182Z,964
2022-08-12T02:15:00.170Z,964
2022-08-12T02:20:00.203Z,964.3
2022-08-12T02:25:00.173Z,964.3
2022-08-12T02:30:00.184Z,964.5
2022-08-12T02:35:00.176Z,964.9
2022-08-12T02:40:00.382Z,965.4
2022-08-12T02:45:00.179Z,965.6
2022-08-12T02:50:00.197Z,965.8
2022-08-12T02:55:00.172Z,966.2
2022-08-12T03:00:00.207Z,966.7
2022-08-12T03:05:00.163Z,966.7
2022-08-12T03:10:05.282Z,967.1
2022-08-12T03:15:00.166Z,967.3
2022-08-12T03:20:09.868Z,967.5
2022-08-12T03:25:00.157Z,967.5
2022-08-12T03:30:00.179Z,967.3
2022-08-12T03:35:00.157Z,967.5
2022-08-12T03:40:00.335Z,967.1
2022-08-12T03:45:00.156Z,967.1
2022-08-12T03:50:00.158Z,967.3
2022-08-12T03:55:00.175Z,967.3
2022-08-12T04:00:00.250Z,967.1
2022-08-12T04:05:00.156Z,967.1
2022-08-12T04:10:00.161Z,967.5
2022-08-12T04:15:00.163Z,967.3
2022-08-12T04:20:00.234Z,967.5
2022-08-12T04:25:00.168Z,967.5
2022-08-12T04:30:29.339Z,967.5
2022-08-12T04:35:00.160Z,967.7
2022-08-12T04:40:00.190Z,967.5
2022-08-12T04:45:00.183Z,967.5
2022-08-12T04:50:00.163Z,967.5
2022-08-12T04:55:00.157Z,967.7
2022-08-12T05:00:00.183Z,968
2022-08-12T05:05:00.638Z,967.7
2022-08-12T05:10:02.462Z,967.5
2022-08-12T05:15:00.259Z,967.1
2022-08-12T05:20:00.288Z,967.1
2022-08-12T05:25:00.200Z,967.1
2022-08-12T05:30:06.608Z,966.7
2022-08-12T05:35:00.163Z,966.7
2022-08-12T05:40:00.303Z,965.8
2022-08-12T05:45:00.167Z,964.9
2022-08-12T05:50:00.157Z,965.1
2022-08-12T05:55:00.162Z,964.9
2022-08-12T06:00:00.195Z,964.9
2022-08-12T06:15:00.241Z,963.8
2022-08-12T06:20:25.932Z,962.7
2022-08-12T06:25:00.191Z,962.7
2022-08-12T06:30:08.454Z,962.7
2022-08-12T06:35:24.931Z,961.9
2022-08-12T06:40:03.685Z,962.3
2022-08-12T06:45:00.177Z,961
2022-08-12T06:50:00.219Z,961
2022-08-12T06:55:00.168Z,960.8
2022-08-12T07:00:00.279Z,960.1
2022-08-12T07:05:00.186Z,959.5
2022-08-12T07:10:06.247Z,959.9
2022-08-12T07:15:00.198Z,958.8
2022-08-12T07:20:04.226Z,959.3
2022-08-12T07:25:00.177Z,959
2022-08-12T07:30:04.806Z,958.8
2022-08-12T07:35:00.193Z,958.2
2022-08-12T07:40:01.243Z,956.7
2022-08-12T07:45:00.171Z,957.1
2022-08-12T07:50:04.427Z,956
2022-08-12T07:55:00.169Z,956.2
2022-08-12T08:00:00.166Z,956
2022-08-12T08:05:00.182Z,954.9
2022-08-12T08:10:00.520Z,954.3
2022-08-12T08:15:00.205Z,953.6
2022-08-12T08:20:02.755Z,953.6
2022-08-12T08:25:00.228Z,953.2
2022-08-12T08:30:00.268Z,952.1
2022-08-12T08:35:00.247Z,952.3
2022-08-12T08:40:00.441Z,951.4
2022-08-12T08:45:00.217Z,951
2022-08-12T08:50:00.196Z,950.6
2022-08-12T08:55:00.178Z,949.7
2022-08-12T09:00:00.208Z,949.3
2022-08-12T09:05:12.800Z,949.7
2022-08-12T09:15:00.178Z,948.8
2022-08-12T09:20:00.197Z,947.5
2022-08-12T09:25:01.347Z,947.1
2022-08-12T09:30:08.655Z,946.7
2022-08-12T09:35:00.158Z,947.3
2022-08-12T09:40:04.447Z,946
2022-08-12T09:45:18.107Z,945.4
2022-08-12T09:50:00.261Z,947.3
2022-08-12T09:55:02.345Z,946
2022-08-12T10:00:16.570Z,946.4
2022-08-12T10:05:00.165Z,946.7
2022-08-12T10:10:00.180Z,945.8
2022-08-12T10:15:00.184Z,945.8
2022-08-12T10:20:01.422Z,947.1
2022-08-12T10:25:00.170Z,944.9
2022-08-12T10:30:39.036Z,944
2022-08-12T10:35:00.173Z,945.1
2022-08-12T10:40:09.296Z,944.3
2022-08-12T10:45:00.170Z,944.9
2022-08-12T10:50:06.931Z,945.4
2022-08-12T10:55:00.170Z,945.4
2022-08-12T11:00:31.587Z,944
2022-08-12T11:05:00.764Z,942.7
2022-08-12T11:10:02.465Z,943.2
2022-08-12T11:15:00.157Z,944.5
2022-08-12T11:20:00.179Z,944.5
2022-08-12T11:25:00.170Z,943.2
2022-08-12T11:30:02.213Z,943.2
2022-08-12T11:35:00.178Z,942.7
2022-08-12T11:40:00.180Z,943
2022-08-12T11:45:00.150Z,942.7
2022-08-12T11:50:00.135Z,942.7
2022-08-12T11:55:00.139Z,941.9
2022-08-12T12:05:00.160Z,942.3
2022-08-12T12:10:00.154Z,942.3
2022-08-12T12:15:03.126Z,942.1
2022-08-12T12:20:00.159Z,941
2022-08-12T12:25:12.513Z,943
2022-08-12T12:30:17.491Z,941.9
2022-08-12T12:35:18.407Z,941.9
2022-08-12T12:40:00.281Z,941.4
2022-08-12T12:45:00.162Z,941.4
2022-08-12T12:50:00.152Z,941.4
2022-08-12T12:55:00.157Z,941.4
2022-08-12T13:00:00.181Z,941.9
2022-08-12T13:05:00.173Z,941.4
2022-08-12T13:10:02.008Z,940.8
2022-08-12T13:15:00.174Z,941.4
2022-08-12T13:20:00.158Z,941
2022-08-12T13:30:03.901Z,941.4
2022-08-12T13:40:00.350Z,941.4
2022-08-12T13:45:02.957Z,941
2022-08-12T13:50:00.209Z,941
2022-08-12T13:55:00.190Z,941
2022-08-12T14:00:00.847Z,941.9
2022-08-12T14:05:00.185Z,941.9
2022-08-12T14:10:00.199Z,941.2
2022-08-12T14:15:00.691Z,941.4
2022-08-12T14:20:00.828Z,941.7
2022-08-12T14:25:00.492Z,941.9
2022-08-12T14:30:06.036Z,941.9
2022-08-12T14:35:00.199Z,941.4
2022-08-12T14:40:00.219Z,942.7
2022-08-12T14:45:01.402Z,942.7
2022-08-12T14:50:37.281Z,941.7
2022-08-12T15:00:00.411Z,942.1
2022-08-12T15:05:00.226Z,941.2
2022-08-12T15:10:00.205Z,942.3
2022-08-12T15:15:00.185Z,941.9
2022-08-12T15:20:31.534Z,941.7
2022-08-12T15:25:00.186Z,941.7
2022-08-12T15:30:00.194Z,942.7
2022-08-12T15:35:00.182Z,941.4
2022-08-12T15:40:01.248Z,941.9
2022-08-12T15:45:00.193Z,941.9
2022-08-12T15:50:01.224Z,942.3
2022-08-12T15:55:06.001Z,943.6
2022-08-12T16:00:06.781Z,943.6
2022-08-12T16:05:00.308Z,943.8
2022-08-12T16:10:05.795Z,944
2022-08-12T16:15:00.374Z,944.3
2022-08-12T16:20:03.174Z,944.5
2022-08-12T16:25:00.294Z,945.4
2022-08-12T16:30:00.200Z,944.9
2022-08-12T16:35:00.580Z,944
2022-08-12T16:40:01.545Z,944
2022-08-12T16:45:00.176Z,944.3
2022-08-12T16:50:00.185Z,944.5
2022-08-12T16:55:00.186Z,945.1
2022-08-12T17:00:00.198Z,944.5
2022-08-12T17:05:00.188Z,942.7
2022-08-12T17:10:00.197Z,943.2
2022-08-12T17:15:00.789Z,944
2022-08-12T17:20:28.809Z,944.9
2022-08-12T17:25:00.184Z,945.6
2022-08-12T17:30:03.720Z,945.1
2022-08-12T17:35:00.501Z,945.8
2022-08-12T17:40:15.439Z,946.7
2022-08-12T17:45:00.190Z,946.7
2022-08-12T17:50:03.449Z,947.3
2022-08-12T17:55:00.207Z,948
2022-08-12T18:00:00.179Z,948.8
2022-08-12T18:05:09.787Z,947.7
2022-08-12T18:10:00.194Z,948.8
2022-08-12T18:15:00.178Z,948.4
2022-08-12T18:20:05.723Z,948.8
2022-08-12T18:25:00.973Z,948.8
2022-08-12T18:30:04.579Z,949.3
2022-08-12T18:35:10.369Z,950.6
2022-08-12T18:40:00.289Z,951.9
2022-08-12T18:45:00.202Z,952.7
2022-08-12T18:50:00.189Z,954
2022-08-12T18:55:02.757Z,954.7
2022-08-12T19:00:06.518Z,955.8
2022-08-12T19:05:03.149Z,956.7
2022-08-12T19:10:03.927Z,957.5
2022-08-12T19:15:04.077Z,958.4
2022-08-12T19:20:00.172Z,959.3
2022-08-12T19:25:00.235Z,960.1
2022-08-12T19:30:06.463Z,960.8
2022-08-12T19:36:06.597Z,961.9
2022-08-12T19:40:09.198Z,962.5
2022-08-12T19:45:00.181Z,963
2022-08-12T19:50:00.184Z,963.2
2022-08-12T19:55:00.170Z,963.6
2022-08-12T20:00:04.394Z,964
2022-08-12T20:06:03.892Z,964.5
2022-08-12T20:10:00.208Z,964.9
2022-08-12T20:15:00.220Z,965.1
2022-08-12T20:20:18.753Z,964.5
2022-08-12T20:25:01.512Z,964
2022-08-12T20:30:00.370Z,963.8
2022-08-12T20:35:00.299Z,963.6
2022-08-12T20:40:05.082Z,963.2
2022-08-12T20:45:00.205Z,961.4
2022-08-12T20:50:00.278Z,960.1
2022-08-12T20:55:00.252Z,959
2022-08-12T21:00:00.197Z,958.4
2022-08-12T21:05:00.201Z,958.2
2022-08-12T21:10:00.186Z,957.3
2022-08-12T21:15:18.077Z,957.7
2022-08-12T21:20:00.176Z,957.5
2022-08-12T21:25:00.206Z,957.3
2022-08-12T21:30:00.207Z,958.2
2022-08-12T21:35:00.188Z,958
2022-08-12T21:40:00.318Z,958.4
2022-08-12T21:45:47.732Z,958
2022-08-12T21:50:04.186Z,958
2022-08-12T21:55:00.198Z,958.4
2022-08-12T22:00:00.192Z,958.6
2022-08-12T22:05:00.191Z,959
2022-08-12T22:10:00.190Z,959.7
2022-08-12T22:15:00.173Z,960.1
2022-08-12T22:20:00.181Z,959.9
2022-08-12T22:25:00.177Z,960.1
2022-08-12T22:30:01.061Z,960.6
2022-08-12T22:35:00.192Z,960.6
2022-08-12T22:40:00.298Z,960.8
2022-08-12T22:45:00.181Z,961.4
2022-08-12T22:50:00.556Z,961.9
2022-08-12T22:55:03.641Z,962.7
2022-08-12T23:00:00.182Z,963.6
2022-08-12T23:05:00.971Z,963.6
2022-08-12T23:10:00.188Z,963.6
2022-08-12T23:15:00.173Z,963.8
2022-08-12T23:20:00.186Z,964
2022-08-12T23:25:00.380Z,964.3
2022-08-12T23:30:19.058Z,964.3
2022-08-12T23:35:00.175Z,964
2022-08-12T23:40:14.123Z,964.5
2022-08-12T23:45:00.364Z,964.5
2022-08-12T23:50:03.145Z,964
2022-08-12T23:55:23.829Z,964.5
